createdAt,value
2022-10-04T00:03:47.517Z,3.65
2022-10-04T00:09:05.189Z,2.75
2022-10-04T00:14:31.109Z,4.05
2022-10-04T00:19:42.885Z,3.55
2022-10-04T00:25:08.446Z,4.40
2022-10-04T00:30:37.590Z,3.67
2022-10-04T00:35:40.207Z,3.72
2022-10-04T00:40:56.572Z,4.10
2022-10-04T00:46:10.549Z,3.85
2022-10-04T00:51:38.150Z,3.78
2022-10-04T00:56:45.422Z,3.55
2022-10-04T01:01:55.391Z,4.18
2022-10-04T01:07:02.327Z,4.03
2022-10-04T01:12:17.093Z,4.85
2022-10-04T01:17:26.410Z,4.10
2022-10-04T01:22:43.135Z,4.55
2022-10-04T01:27:44.950Z,5.30
2022-10-04T01:32:54.662Z,5.20
2022-10-04T01:37:56.367Z,5.75
2022-10-04T01:43:05.371Z,4.22
2022-10-04T01:48:15.525Z,5.63
2022-10-04T01:53:29.107Z,6.15
2022-10-04T01:58:45.857Z,5.93
2022-10-04T02:04:33.573Z,6.20
2022-10-04T02:09:43.717Z,6.53
2022-10-04T02:14:53.234Z,6.35
2022-10-04T02:19:59.021Z,6.47
2022-10-04T02:25:06.142Z,6.22
2022-10-04T02:30:12.493Z,6.72
2022-10-04T02:35:14.352Z,7.45
2022-10-04T02:40:23.288Z,7.28
2022-10-04T02:45:29.589Z,7.30
2022-10-04T02:50:37.637Z,7.50
2022-10-04T02:55:42.687Z,7.57
2022-10-04T03:00:55.299Z,7.63
2022-10-04T03:06:05.897Z,7.75
2022-10-04T03:11:08.310Z,6.65
2022-10-04T03:16:12.454Z,5.63
2022-10-04T03:21:16.445Z,5.75
2022-10-04T03:26:46.551Z,7.00
2022-10-04T03:31:53.258Z,8.02
2022-10-04T03:36:59.151Z,9.30
2022-10-04T03:42:19.239Z,8.98
2022-10-04T03:47:25.441Z,10.18
2022-10-04T03:52:33.211Z,9.23
2022-10-04T03:57:35.369Z,10.43
2022-10-04T04:02:45.982Z,11.27
2022-10-04T04:08:14.736Z,11.73
2022-10-04T04:13:31.585Z,12.45
2022-10-04T04:18:37.858Z,13.23
2022-10-04T04:23:50.382Z,12.73
2022-10-04T04:28:58.377Z,13.23
2022-10-04T04:34:12.391Z,13.95
2022-10-04T04:39:37.375Z,14.10
2022-10-04T04:44:57.313Z,14.30
2022-10-04T04:50:07.675Z,15.50
2022-10-04T04:55:27.413Z,15.10
2022-10-04T05:00:31.894Z,15.82
2022-10-04T05:05:34.814Z,17.17
2022-10-04T05:10:58.610Z,16.85
2022-10-04T05:16:01.111Z,16.97
2022-10-04T05:21:12.017Z,17.57
2022-10-04T05:26:16.601Z,16.30
2022-10-04T05:31:42.124Z,15.98
2022-10-04T05:37:08.271Z,16.35
2022-10-04T05:42:26.933Z,16.77
2022-10-04T05:47:36.893Z,16.00
2022-10-04T05:52:40.932Z,15.63
2022-10-04T05:58:09.068Z,14.03
2022-10-04T06:03:21.451Z,14.65
2022-10-04T06:08:44.817Z,15.53
2022-10-04T06:14:18.756Z,14.23
2022-10-04T06:19:32.420Z,12.77
2022-10-04T06:24:38.802Z,12.82
2022-10-04T06:30:12.265Z,12.60
2022-10-04T06:35:48.559Z,12.80
2022-10-04T06:40:54.238Z,10.40
2022-10-04T06:46:02.978Z,11.18
2022-10-04T06:51:33.733Z,10.70
2022-10-04T06:57:08.400Z,10.15
2022-10-04T07:02:19.269Z,8.73
2022-10-04T07:07:37.003Z,7.95
2022-10-04T07:12:45.226Z,8.40
2022-10-04T07:17:50.315Z,8.75
2022-10-04T07:22:59.609Z,8.00
2022-10-04T07:28:33.530Z,8.95
2022-10-04T07:33:46.785Z,9.55
2022-10-04T07:38:58.343Z,9.82
2022-10-04T07:44:07.160Z,10.55
2022-10-04T07:49:16.525Z,9.90
2022-10-04T07:54:40.597Z,9.55
2022-10-04T07:59:52.791Z,10.48
2022-10-04T08:05:07.814Z,9.30
2022-10-04T08:10:27.486Z,9.85
2022-10-04T08:15:38.955Z,9.48
2022-10-04T08:21:06.972Z,9.13
2022-10-04T08:26:27.569Z,8.05
2022-10-04T08:31:39.452Z,8.27
2022-10-04T08:36:52.013Z,7.50
2022-10-04T08:42:22.663Z,7.50
2022-10-04T08:47:58.925Z,7.88
2022-10-04T08:53:22.790Z,6.82
2022-10-04T08:58:49.807Z,5.20
2022-10-04T09:04:11.191Z,4.65
2022-10-04T09:09:44.638Z,4.95
2022-10-04T09:14:50.118Z,4.32
2022-10-04T09:20:37.744Z,4.18
2022-10-04T09:25:53.417Z,4.22
2022-10-04T09:31:27.865Z,4.00
2022-10-04T09:36:58.316Z,2.85
2022-10-04T09:42:15.411Z,4.05
2022-10-04T09:47:45.320Z,3.05
2022-10-04T09:53:11.150Z,2.97
2022-10-04T09:58:29.614Z,3.67
2022-10-04T10:03:44.129Z,3.13
2022-10-04T10:08:58.829Z,2.90
2022-10-04T10:14:28.282Z,3.28
2022-10-04T10:19:44.367Z,2.75
2022-10-04T10:25:13.323Z,2.45
2022-10-04T10:30:39.868Z,3.00
2022-10-04T10:36:06.990Z,2.50
2022-10-04T10:41:26.136Z,2.72
2022-10-04T10:47:11.905Z,2.53
2022-10-04T10:52:51.782Z,2.45
2022-10-04T10:58:14.425Z,2.60
2022-10-04T11:03:52.740Z,2.47
2022-10-04T11:09:23.693Z,2.15
2022-10-04T11:14:50.174Z,2.92
2022-10-04T11:20:35.125Z,2.65
2022-10-04T11:25:57.288Z,2.28
2022-10-04T11:30:58.921Z,2.30
2022-10-04T11:36:17.915Z,2.17
2022-10-04T11:41:50.315Z,2.70
2022-10-04T11:47:12.761Z,1.90
2022-10-04T11:52:40.483Z,2.13
2022-10-04T11:57:55.205Z,1.77
2022-10-04T12:03:09.404Z,2.25
2022-10-04T12:08:49.212Z,2.30
2022-10-04T12:13:57.799Z,2.22
2022-10-04T12:19:07.587Z,2.20
2022-10-04T12:24:41.265Z,2.30
2022-10-04T12:30:00.266Z,2.60
2022-10-04T12:35:14.153Z,2.13
2022-10-04T12:40:24.434Z,2.00
2022-10-04T12:45:52.732Z,2.47
2022-10-04T12:51:02.901Z,2.35
2022-10-04T12:56:11.635Z,1.92
2022-10-04T13:01:45.847Z,1.83
2022-10-04T13:06:59.455Z,2.67
2022-10-04T13:12:22.824Z,2.00
2022-10-04T13:17:36.156Z,2.67
2022-10-04T13:23:28.993Z,2.08
2022-10-04T13:28:44.036Z,1.85
2022-10-04T13:34:14.468Z,1.90
2022-10-04T13:39:42.930Z,2.15
2022-10-04T13:45:02.572Z,2.10
2022-10-04T13:50:31.971Z,2.10
2022-10-04T13:56:22.918Z,1.65
2022-10-04T14:01:50.782Z,2.17
2022-10-04T14:07:11.734Z,2.40
2022-10-04T14:12:33.962Z,1.70
2022-10-04T14:18:02.534Z,1.95
2022-10-04T14:23:10.532Z,2.47
2022-10-04T14:28:27.454Z,2.42
2022-10-04T14:33:32.223Z,2.47
2022-10-04T14:38:42.732Z,2.25
2022-10-04T14:44:03.228Z,1.70
2022-10-04T14:49:30.941Z,1.73
2022-10-04T14:54:56.647Z,1.88
2022-10-04T15:00:19.232Z,1.92
2022-10-04T15:05:36.099Z,1.90
2022-10-04T15:10:51.024Z,1.92
2022-10-04T15:16:18.716Z,2.40
2022-10-04T15:21:46.773Z,2.22
2022-10-04T15:27:18.919Z,1.88
2022-10-04T15:32:24.353Z,2.25
2022-10-04T15:37:57.143Z,4.35
2022-10-04T15:43:23.611Z,3.28
2022-10-04T15:48:33.048Z,2.05
2022-10-04T15:53:55.955Z,2.28
2022-10-04T15:59:20.366Z,2.40
2022-10-04T16:04:25.909Z,2.40
2022-10-04T16:09:53.902Z,2.45
2022-10-04T16:15:24.571Z,2.58
2022-10-04T16:21:00.708Z,2.42
2022-10-04T16:26:19.917Z,3.00
2022-10-04T16:31:45.909Z,2.90
2022-10-04T16:37:12.242Z,2.63
2022-10-04T16:42:18.727Z,2.85
2022-10-04T16:47:31.953Z,2.65
2022-10-04T16:53:02.579Z,2.53
2022-10-04T16:58:26.837Z,3.00
2022-10-04T17:03:36.040Z,3.00
2022-10-04T17:08:49.955Z,3.00
2022-10-04T17:14:02.379Z,3.55
2022-10-04T17:19:33.951Z,4.95
2022-10-04T17:25:12.551Z,7.78
2022-10-04T17:30:22.223Z,5.85
2022-10-04T17:35:56.498Z,4.78
2022-10-04T17:41:35.358Z,4.13
2022-10-04T17:47:14.256Z,4.22
2022-10-04T17:52:43.047Z,4.00
2022-10-04T17:57:53.750Z,4.30
2022-10-04T18:03:12.593Z,4.38
2022-10-04T18:08:48.933Z,4.72
2022-10-04T18:14:03.945Z,4.43
2022-10-04T18:19:51.140Z,5.03
2022-10-04T18:25:31.290Z,6.75
2022-10-04T18:31:00.515Z,5.32
2022-10-04T18:36:10.366Z,4.70
2022-10-04T18:41:23.355Z,4.95
2022-10-04T18:46:26.154Z,4.93
2022-10-04T18:51:43.920Z,5.03
2022-10-04T18:56:52.013Z,4.80
2022-10-04T19:02:08.433Z,5.07
2022-10-04T19:07:15.750Z,5.18
2022-10-04T19:12:49.158Z,5.20
2022-10-04T19:18:12.064Z,5.80
2022-10-04T19:23:33.680Z,4.95
2022-10-04T19:28:38.048Z,5.50
2022-10-04T19:33:39.993Z,6.10
2022-10-04T19:38:53.514Z,6.22
2022-10-04T19:44:16.342Z,5.63
2022-10-04T19:49:41.640Z,5.78
2022-10-04T19:54:47.765Z,5.68
2022-10-04T19:59:52.905Z,5.53
2022-10-04T20:04:56.349Z,5.35
2022-10-04T20:10:28.493Z,5.97
2022-10-04T20:15:34.816Z,7.05
2022-10-04T20:20:39.662Z,6.03
2022-10-04T20:25:44.612Z,5.95
2022-10-04T20:30:52.260Z,5.90
2022-10-04T20:36:02.088Z,6.43
2022-10-04T20:41:05.377Z,6.03
2022-10-04T20:46:22.184Z,6.13
2022-10-04T20:51:30.142Z,5.82
2022-10-04T20:56:33.340Z,6.03
2022-10-04T21:01:36.300Z,5.80
2022-10-04T21:06:55.978Z,5.78
2022-10-04T21:12:02.770Z,6.32
2022-10-04T21:17:30.011Z,5.85
2022-10-04T21:22:38.760Z,5.90
2022-10-04T21:27:45.559Z,6.22
2022-10-04T21:32:49.038Z,5.85
2022-10-04T21:37:54.139Z,6.10
2022-10-04T21:42:56.004Z,5.97
2022-10-04T21:47:58.689Z,5.65
2022-10-04T21:53:02.926Z,6.15
2022-10-04T21:58:07.076Z,5.50
2022-10-04T22:03:08.775Z,5.60
2022-10-04T22:08:13.017Z,5.82
2022-10-04T22:13:17.321Z,5.45
2022-10-04T22:18:22.081Z,5.38
2022-10-04T22:23:28.290Z,5.30
2022-10-04T22:28:32.820Z,5.63
2022-10-04T22:33:42.247Z,5.47
2022-10-04T22:39:08.848Z,5.45
2022-10-04T22:44:19.591Z,5.30
2022-10-04T22:49:35.391Z,5.60
2022-10-04T22:54:45.206Z,5.70
2022-10-04T22:59:52.965Z,6.18
2022-10-04T23:05:11.872Z,5.60
2022-10-04T23:10:18.572Z,6.03
2022-10-04T23:15:20.859Z,5.50
2022-10-04T23:20:25.005Z,5.57
2022-10-04T23:25:28.606Z,5.10
2022-10-04T23:30:32.644Z,6.07
2022-10-04T23:35:35.460Z,5.63
2022-10-04T23:40:39.408Z,5.22
2022-10-04T23:45:45.637Z,6.47
2022-10-04T23:50:47.868Z,6.03
2022-10-04T23:55:54.288Z,5.80
